Time;durP1;ratioP1;P1;durP2;ratioP2;P2;SDS_P1;SDS_P2;PMS_P1;PMS_P2;Temp;Humidity;BMP_temperature;BMP_pressure;BME280_temperature;BME280_humidity;BME280_pressure;Samples;Min_cycle;Max_cycle;Signal;HPM_P1;HPM_P2
2022/09/13 00:30:42;;;;;;;13.10;6.57;;;;;;;6.69;88.61;98744.13;2239205;79;22954;-83
2022/09/13 00:33:42;;;;;;;7.97;6.37;;;;;;;6.59;88.59;98736.95;2190317;80;20980;-83
2022/09/13 00:36:43;;;;;;;9.93;6.67;;;;;;;6.55;88.48;98740.30;2190365;81;21316;-83
2022/09/13 00:39:43;;;;;;;11.13;7.03;;;;;;;6.49;88.63;98738.84;2190193;81;21006;-83
2022/09/13 00:42:43;;;;;;;17.27;6.63;;;;;;;6.46;88.82;98738.34;2190254;81;20955;-83
2022/09/13 00:45:44;;;;;;;9.77;6.60;;;;;;;6.49;88.72;98730.64;2190524;81;20989;-83
2022/09/13 00:48:44;;;;;;;14.20;6.70;;;;;;;6.42;88.65;98731.73;2190336;81;21030;-84
2022/09/13 00:51:45;;;;;;;9.50;6.23;;;;;;;6.39;88.77;98732.12;2190473;81;20975;-84
2022/09/13 00:54:45;;;;;;;31.83;16.97;;;;;;;6.36;88.81;98726.85;2190265;81;20999;-83
2022/09/13 00:57:45;;;;;;;8.37;7.33;;;;;;;6.35;88.90;98722.92;2190256;81;21355;-83
2022/09/13 01:00:46;;;;;;;8.97;6.67;;;;;;;6.38;89.03;98723.00;2190237;81;21003;-83
2022/09/13 01:03:46;;;;;;;10.13;6.33;;;;;;;6.34;88.78;98718.16;2190165;81;21042;-83
2022/09/13 01:06:47;;;;;;;8.87;6.37;;;;;;;6.32;88.72;98722.42;2190275;81;21000;-83
2022/09/13 01:09:47;;;;;;;10.90;6.00;;;;;;;6.36;89.07;98720.79;2190133;81;21347;-83
2022/09/13 01:12:48;;;;;;;8.17;6.20;;;;;;;6.32;88.60;98715.94;2189981;81;20992;-82
2022/09/13 01:15:48;;;;;;;14.33;6.37;;;;;;;6.26;88.32;98711.02;2190301;81;20975;-82
2022/09/13 01:18:48;;;;;;;10.53;6.30;;;;;;;6.21;88.64;98710.89;2190423;81;20975;-83
2022/09/13 01:21:49;;;;;;;7.97;6.37;;;;;;;6.26;89.08;98718.38;2190217;81;20964;-83
2022/09/13 01:24:49;;;;;;;41.60;7.93;;;;;;;6.31;89.07;98718.08;2190497;81;21030;-85
2022/09/13 01:27:49;;;;;;;14.17;5.83;;;;;;;6.29;88.65;98713.69;2189800;81;20948;-85
2022/09/13 01:30:50;;;;;;;11.40;6.77;;;;;;;6.27;88.62;98720.13;2189677;81;21423;-83
2022/09/13 01:33:50;;;;;;;12.80;6.57;;;;;;;6.24;88.23;98714.86;2190098;81;20944;-84
2022/09/13 01:36:51;;;;;;;10.63;6.90;;;;;;;6.20;88.46;98722.09;2190179;81;20924;-84
2022/09/13 01:39:54;;;;;;;10.97;6.60;;;;;;;6.21;88.41;98717.38;2190236;81;20957;-84
2022/09/13 01:42:56;;;;;;;11.80;8.40;;;;;;;6.26;88.69;98722.67;2189457;81;21010;-84
2022/09/13 01:45:54;;;;;;;12.63;7.57;;;;;;;6.30;88.70;98722.80;2173689;81;20932;-83
2022/09/13 01:48:54;;;;;;;9.90;7.40;;;;;;;6.28;88.40;98720.59;2189591;81;21000;-84
2022/09/13 01:51:55;;;;;;;14.67;7.80;;;;;;;6.22;88.31;98719.13;2189484;81;20981;-83
2022/09/13 01:54:55;;;;;;;10.07;6.60;;;;;;;6.19;88.25;98717.75;2189718;81;20964;-84
2022/09/13 01:57:55;;;;;;;36.13;9.57;;;;;;;6.13;88.12;98716.28;2189398;81;20976;-82
2022/09/13 02:00:56;;;;;;;12.90;6.50;;;;;;;6.06;87.98;98713.03;2189501;81;20999;-83
2022/09/13 02:03:56;;;;;;;12.63;5.73;;;;;;;5.99;88.10;98700.75;2189729;81;21367;-84
2022/09/13 02:06:57;;;;;;;8.50;5.97;;;;;;;5.97;88.34;98693.35;2189518;81;20964;-83
2022/09/13 02:09:57;;;;;;;9.60;5.53;;;;;;;5.93;88.23;98688.50;2189542;81;20988;-83
2022/09/13 02:12:57;;;;;;;6.87;5.40;;;;;;;5.88;88.19;98685.29;2189275;81;20992;-83
2022/09/13 02:15:58;;;;;;;11.57;5.73;;;;;;;5.85;88.47;98681.32;2189666;81;21004;-83
2022/09/13 02:18:58;;;;;;;119.63;18.17;;;;;;;5.82;88.43;98690.30;2189461;81;20992;-80
2022/09/13 02:21:59;;;;;;;12.00;5.90;;;;;;;5.80;88.78;98685.08;2189784;81;21000;-83
2022/09/13 02:24:59;;;;;;;8.53;5.63;;;;;;;5.96;90.61;98679.94;2189816;81;20999;-84
2022/09/13 02:28:00;;;;;;;11.80;6.20;;;;;;;6.08;88.93;98675.12;2190658;81;20967;-84
2022/09/13 02:31:00;;;;;;;10.20;6.00;;;;;;;6.02;88.11;98677.52;2188962;81;21062;-84
2022/09/13 02:34:02;;;;;;;8.17;5.93;;;;;;;5.90;87.64;98674.59;2189471;81;20948;-83
2022/09/13 02:37:01;;;;;;;7.77;6.00;;;;;;;5.79;87.49;98668.20;2189447;81;20964;-83
2022/09/13 02:40:04;;;;;;;8.63;6.60;;;;;;;5.69;87.87;98667.94;2189663;81;21460;-84
2022/09/13 02:43:07;;;;;;;12.63;6.70;;;;;;;5.65;88.02;98672.58;2189252;81;20995;-84
2022/09/13 02:46:07;;;;;;;20.00;7.07;;;;;;;5.66;88.41;98672.16;2174110;81;20960;-84
2022/09/13 02:49:07;;;;;;;10.67;6.80;;;;;;;5.66;88.33;98661.80;2189370;81;21070;-83
2022/09/13 02:52:07;;;;;;;11.70;6.30;;;;;;;5.60;88.16;98661.63;2189161;81;21276;-84
2022/09/13 02:55:08;;;;;;;11.30;7.00;;;;;;;5.55;88.34;98660.20;2189297;81;20995;-84
2022/09/13 02:58:08;;;;;;;13.23;6.73;;;;;;;5.50;88.53;98663.08;2189660;81;20917;-84
2022/09/13 03:01:09;;;;;;;28.83;7.63;;;;;;;5.52;88.85;98660.12;2189492;81;20996;-79
2022/09/13 03:04:09;;;;;;;11.43;7.07;;;;;;;5.49;88.70;98660.03;2189608;81;21320;-84
2022/09/13 03:07:09;;;;;;;8.07;7.00;;;;;;;5.50;89.04;98660.91;2189409;81;20940;-82
2022/09/13 03:10:10;;;;;;;13.33;7.90;;;;;;;5.52;89.00;98665.30;2189376;81;21027;-84
2022/09/13 03:13:10;;;;;;;7.63;6.30;;;;;;;5.58;89.13;98664.59;2189464;81;20900;-85
2022/09/13 03:16:11;;;;;;;9.73;6.40;;;;;;;5.60;88.67;98653.45;2189626;81;20976;-83
2022/09/13 03:19:11;;;;;;;8.83;6.03;;;;;;;5.57;88.24;98659.83;2189429;81;21344;-84
2022/09/13 03:22:12;;;;;;;6.67;5.83;;;;;;;5.52;87.94;98651.05;2189274;81;20971;-83
2022/09/13 03:25:12;;;;;;;37.07;16.07;;;;;;;5.49;87.88;98651.39;2189602;81;20936;-82
2022/09/13 03:28:12;;;;;;;13.53;10.43;;;;;;;5.52;88.57;98648.88;2189027;81;20979;-85
2022/09/13 03:31:13;;;;;;;15.03;7.83;;;;;;;5.57;88.68;98642.13;2188537;81;21122;-83
2022/09/13 03:34:13;;;;;;;63.93;8.77;;;;;;;5.54;88.66;98637.73;2189399;81;21272;-83
2022/09/13 03:37:14;;;;;;;12.03;6.90;;;;;;;5.58;88.90;98642.59;2189390;81;20972;-83
2022/09/13 03:40:14;;;;;;;58.13;9.37;;;;;;;5.56;88.79;98630.02;2188495;81;20984;-82
2022/09/13 03:43:14;;;;;;;11.37;6.90;;;;;;;5.55;88.78;98624.38;2188514;81;20984;-83
2022/09/13 03:46:15;;;;;;;13.80;7.63;;;;;;;5.52;88.73;98620.41;2187648;81;20978;-82
2022/09/13 03:49:15;;;;;;;18.03;7.60;;;;;;;5.47;88.47;98615.09;2187310;81;20959;-83
2022/09/13 03:52:16;;;;;;;14.17;7.80;;;;;;;5.48;89.74;98620.73;2188288;81;20929;-83
2022/09/13 03:55:16;;;;;;;19.23;7.63;;;;;;;5.48;89.74;98620.73;2188098;81;20932;-82
2022/09/13 03:58:16;;;;;;;9.17;7.47;;;;;;;5.47;88.74;98618.98;2187778;81;20910;-83
2022/09/13 04:01:17;;;;;;;10.77;7.37;;;;;;;5.39;88.43;98612.71;2187865;81;20975;-83
2022/09/13 04:04:17;;;;;;;12.17;9.00;;;;;;;5.30;88.41;98618.50;2187969;81;20920;-85
2022/09/13 04:07:18;;;;;;;10.00;7.80;;;;;;;5.27;88.83;98614.95;2187502;81;20968;-83
2022/09/13 04:10:18;;;;;;;10.60;7.73;;;;;;;5.27;89.00;98611.06;2187169;81;21007;-83
2022/09/13 04:13:19;;;;;;;9.53;7.40;;;;;;;5.27;88.94;98612.36;2187503;81;21457;-83
2022/09/13 04:16:22;;;;;;;9.57;7.57;;;;;;;5.26;88.83;98611.90;2187621;81;21329;-83
2022/09/13 04:19:22;;;;;;;12.30;7.20;;;;;;;5.31;88.94;98615.50;2188050;81;20941;-83
2022/09/13 04:22:23;;;;;;;24.83;17.47;;;;;;;5.28;88.43;98614.11;2187842;81;20999;-82
2022/09/13 04:25:23;;;;;;;29.47;10.03;;;;;;;5.26;88.57;98620.95;2188193;81;20936;-83
2022/09/13 04:28:23;;;;;;;17.03;8.13;;;;;;;5.27;88.67;98623.59;2187975;81;21389;-83
2022/09/13 04:31:24;;;;;;;118.13;14.67;;;;;;;5.32;88.73;98629.78;2187048;81;20979;-83
2022/09/13 04:34:24;;;;;;;21.10;8.70;;;;;;;5.39;88.73;98626.95;2187575;81;20968;-80
2022/09/13 04:37:25;;;;;;;10.60;7.87;;;;;;;5.43;88.64;98628.37;2187819;81;20981;-83
2022/09/13 04:40:25;;;;;;;21.33;8.50;;;;;;;5.48;88.41;98631.09;2187960;81;20967;-83
2022/09/13 04:43:26;;;;;;;32.63;11.17;;;;;;;5.46;88.00;98629.30;2188006;81;20924;-84
2022/09/13 04:46:26;;;;;;;11.83;8.60;;;;;;;5.44;88.07;98624.07;2188231;81;20972;-84
2022/09/13 04:49:26;;;;;;;15.13;9.20;;;;;;;5.45;88.04;98627.12;2187406;81;20928;-84
2022/09/13 04:52:27;;;;;;;17.77;9.77;;;;;;;5.45;88.19;98623.23;2187293;81;20961;-84
2022/09/13 04:55:27;;;;;;;14.60;10.80;;;;;;;5.52;88.35;98617.40;2187109;81;21308;-83
2022/09/13 04:58:28;;;;;;;16.70;11.07;;;;;;;5.52;88.35;98617.40;2187500;81;20971;-83
2022/09/13 05:01:28;;;;;;;16.93;10.23;;;;;;;5.58;88.51;98623.16;2187244;81;21715;-80
2022/09/13 05:04:28;;;;;;;22.53;11.93;;;;;;;5.70;88.59;98620.50;2188399;81;20924;-83
2022/09/13 05:07:29;;;;;;;16.13;10.20;;;;;;;5.87;88.70;98614.89;2188203;81;20952;-81
2022/09/13 05:10:29;;;;;;;14.03;10.33;;;;;;;6.01;88.43;98613.58;2188395;81;20952;-80
2022/09/13 05:13:30;;;;;;;14.03;9.97;;;;;;;6.18;88.63;98613.62;2187555;81;20972;-80
2022/09/13 05:16:30;;;;;;;20.63;9.37;;;;;;;6.32;88.56;98607.06;2187468;81;21407;-82
2022/09/13 05:19:30;;;;;;;10.80;9.10;;;;;;;6.49;88.46;98607.89;2186852;81;21008;-81
2022/09/13 05:22:31;;;;;;;14.23;9.73;;;;;;;6.65;88.28;98608.30;2186181;81;20952;-81
2022/09/13 05:25:31;;;;;;;18.00;9.57;;;;;;;6.84;88.36;98610.02;2186647;81;20924;-82
2022/09/13 05:28:32;;;;;;;12.97;10.17;;;;;;;7.06;88.26;98612.70;2186426;81;21011;-82
2022/09/13 05:31:33;;;;;;;14.37;9.27;;;;;;;7.27;88.17;98614.03;2186595;81;21003;-82
2022/09/13 05:34:33;;;;;;;12.33;10.10;;;;;;;7.47;88.10;98617.04;2186033;81;21320;-82
2022/09/13 05:37:33;;;;;;;12.30;9.30;;;;;;;7.64;88.07;98623.45;2186774;81;20944;-84
2022/09/13 05:40:34;;;;;;;15.43;9.87;;;;;;;7.79;88.04;98620.70;2186345;81;20972;-83
2022/09/13 05:43:34;;;;;;;12.80;9.20;;;;;;;7.97;87.92;98622.37;2186034;81;21292;-83
2022/09/13 05:46:35;;;;;;;55.40;10.53;;;;;;;8.16;87.85;98623.16;2187036;81;20983;-83
2022/09/13 05:49:35;;;;;;;30.83;11.10;;;;;;;8.33;87.63;98619.58;2187357;81;20968;-81
2022/09/13 05:52:35;;;;;;;79.63;13.40;;;;;;;8.51;87.78;98619.89;2187108;81;21685;-83
2022/09/13 05:55:36;;;;;;;30.67;9.40;;;;;;;8.76;87.43;98628.12;2187171;81;20920;-83
2022/09/13 05:58:36;;;;;;;33.60;10.20;;;;;;;8.98;87.29;98621.50;2187141;81;20967;-81
2022/09/13 06:01:37;;;;;;;16.13;8.90;;;;;;;9.16;87.67;98613.52;2186699;81;20972;-82
2022/09/13 06:04:37;;;;;;;13.83;8.03;;;;;;;9.37;87.50;98616.84;2187591;81;20975;-81
2022/09/13 06:10:49;;;;;;;25.80;8.87;;;;;;;9.87;87.58;98610.08;2236386;79;22207;-79
2022/09/13 06:13:49;;;;;;;12.23;8.63;;;;;;;10.14;87.96;98620.80;2187476;81;20956;-80
2022/09/13 06:16:49;;;;;;;14.40;8.37;;;;;;;10.43;87.61;98618.95;2187788;81;21022;-82
2022/09/13 06:19:50;;;;;;;11.57;7.60;;;;;;;10.59;86.90;98622.56;2187404;81;20984;-81
2022/09/13 06:22:50;;;;;;;9.77;7.73;;;;;;;10.87;87.83;98615.81;2187056;81;20975;-82
2022/09/13 06:25:51;;;;;;;13.87;8.23;;;;;;;11.16;87.58;98615.56;2188599;81;20980;-83
2022/09/13 06:28:51;;;;;;;35.92;10.70;;;;;;;11.44;87.60;98616.19;2188101;81;21008;-80
2022/09/13 06:31:52;;;;;;;45.83;12.63;;;;;;;11.74;87.72;98611.95;2188303;81;21079;-82
2022/09/13 06:34:52;;;;;;;25.00;10.60;;;;;;;12.10;87.38;98609.47;2187161;81;21055;-80
2022/09/13 06:37:52;;;;;;;16.97;8.63;;;;;;;12.43;87.80;98606.48;2187233;81;21035;-82
2022/09/13 06:40:53;;;;;;;15.48;9.63;;;;;;;12.76;88.25;98605.17;2187993;81;20983;-81
2022/09/13 06:43:56;;;;;;;15.38;10.05;;;;;;;13.11;86.99;98605.59;2187056;81;20972;-81
2022/09/13 06:46:58;;;;;;;30.55;12.35;;;;;;;13.31;87.33;98598.58;2171866;81;20988;-81
2022/09/13 06:49:59;;;;;;;26.77;12.98;;;;;;;13.63;86.43;98598.91;2186495;81;21426;-81
2022/09/13 06:52:58;;;;;;;14.73;12.13;;;;;;;13.95;86.81;98604.90;2187237;81;20991;-80
2022/09/13 06:55:59;;;;;;;18.45;10.85;;;;;;;14.26;85.58;98602.08;2187147;81;20971;-81
2022/09/13 06:58:59;;;;;;;11.88;9.15;;;;;;;14.47;85.17;98596.70;2187824;81;20987;-82
2022/09/13 07:02:00;;;;;;;12.18;9.48;;;;;;;14.73;83.71;98599.56;2188548;81;20972;-83
2022/09/13 07:05:00;;;;;;;12.63;9.08;;;;;;;14.91;83.51;98606.00;2187189;81;21016;-84
2022/09/13 07:08:05;;;;;;;12.10;8.05;;;;;;;15.15;82.60;98604.89;2187111;81;21356;-84
2022/09/13 07:11:05;;;;;;;14.53;9.70;;;;;;;15.35;81.71;98604.67;2171550;81;21426;-83
2022/09/13 07:14:05;;;;;;;17.57;9.23;;;;;;;15.63;81.31;98610.11;2187132;81;20980;-81
2022/09/13 07:17:06;;;;;;;11.12;9.83;;;;;;;15.78;79.92;98603.34;2187123;81;20975;-79
2022/09/13 07:20:07;;;;;;;11.33;10.08;;;;;;;15.90;79.99;98602.31;2186789;81;21735;-83
2022/09/13 07:23:06;;;;;;;12.10;10.03;;;;;;;16.16;80.20;98596.68;2186558;81;20972;-84
2022/09/13 07:26:09;;;;;;;11.63;8.68;;;;;;;16.41;78.44;98598.50;2186575;81;20980;-84
2022/09/13 07:29:09;;;;;;;7.92;7.12;;;;;;;16.54;77.22;98604.91;2171694;81;21463;-82
2022/09/13 07:32:10;;;;;;;8.43;7.28;;;;;;;16.47;76.04;98596.67;2186045;81;20980;-81
2022/09/13 07:35:10;;;;;;;10.58;6.53;;;;;;;16.53;77.46;98608.88;2186387;81;20988;-83
2022/09/13 07:38:11;;;;;;;12.03;7.15;;;;;;;16.53;76.75;98607.11;2186770;81;21443;-84
2022/09/13 07:41:11;;;;;;;8.23;6.30;;;;;;;16.56;76.32;98603.56;2186715;81;21034;-83
2022/09/13 07:44:11;;;;;;;8.25;6.08;;;;;;;16.74;76.18;98598.02;2187294;81;21034;-81
2022/09/13 07:47:12;;;;;;;7.67;6.03;;;;;;;16.85;75.70;98600.03;2186632;81;21043;-82
2022/09/13 07:50:12;;;;;;;8.60;5.20;;;;;;;17.08;76.43;98591.71;2185982;81;21002;-82
2022/09/13 07:53:13;;;;;;;10.80;5.33;;;;;;;17.40;75.37;98588.95;2186370;81;21047;-83
2022/09/13 07:56:13;;;;;;;9.70;6.10;;;;;;;17.56;73.35;98589.05;2186550;81;20999;-83
2022/09/13 07:59:13;;;;;;;6.42;5.10;;;;;;;17.57;73.29;98592.12;2186926;81;20991;-83
2022/09/13 08:02:14;;;;;;;10.75;7.47;;;;;;;17.73;73.06;98586.97;2187544;81;21058;-83
2022/09/13 08:05:14;;;;;;;10.20;5.30;;;;;;;17.89;72.87;98581.36;2186485;81;20999;-83
2022/09/13 08:08:15;;;;;;;6.72;5.10;;;;;;;18.15;71.90;98578.56;2185936;81;21058;-80
2022/09/13 08:11:15;;;;;;;9.00;5.25;;;;;;;18.39;70.75;98575.83;2171467;81;20992;-82
2022/09/13 08:14:15;;;;;;;4.90;4.45;;;;;;;18.58;70.10;98572.29;2169804;81;21350;-83
2022/09/13 08:17:16;;;;;;;13.45;5.45;;;;;;;18.80;68.22;98570.02;2170544;81;21066;-84
2022/09/13 08:20:17;;;;;;;6.45;4.90;;;;;;;18.80;68.90;98567.81;2169952;81;21040;-83
2022/09/13 08:23:17;;;;;;;8.73;5.00;;;;;;;18.96;68.58;98562.09;2170537;81;20996;-84
2022/09/13 08:26:17;;;;;;;5.45;4.72;;;;;;;19.28;68.43;98563.03;2171739;81;21011;-80
2022/09/13 08:29:17;;;;;;;5.47;4.78;;;;;;;19.44;66.39;98557.72;2171404;81;21375;-82
2022/09/13 08:32:18;;;;;;;6.28;4.62;;;;;;;19.39;65.24;98557.86;2170774;81;21376;-83
2022/09/13 08:35:18;;;;;;;6.10;4.20;;;;;;;19.25;65.62;98551.21;2171469;82;20941;-81
2022/09/13 08:38:19;;;;;;;4.35;3.95;;;;;;;19.29;65.74;98546.25;2171452;81;20984;-83
2022/09/13 08:41:19;;;;;;;7.17;5.15;;;;;;;19.39;64.73;98548.59;2171306;81;21079;-82
2022/09/13 08:44:22;;;;;;;15.90;5.00;;;;;;;19.44;65.27;98548.45;2169790;81;20988;-82
2022/09/13 08:47:20;;;;;;;13.25;4.83;;;;;;;19.61;63.10;98550.20;2169596;81;20965;-83
2022/09/13 08:50:20;;;;;;;10.65;4.53;;;;;;;19.58;62.08;98554.27;2170128;81;21331;-84
2022/09/13 08:53:21;;;;;;;9.40;4.50;;;;;;;19.56;63.43;98550.79;2169996;81;20991;-82
2022/09/13 08:56:21;;;;;;;7.87;4.58;;;;;;;19.62;62.64;98549.28;2169787;81;21575;-81
2022/09/13 08:59:22;;;;;;;7.92;5.10;;;;;;;19.79;62.79;98554.08;2169973;81;20957;-82
2022/09/13 09:02:22;;;;;;;4.40;4.00;;;;;;;19.78;61.21;98548.83;2170268;81;21238;-82
2022/09/13 09:05:22;;;;;;;5.78;4.58;;;;;;;19.92;62.27;98550.16;2169650;81;21371;-81
2022/09/13 09:08:23;;;;;;;4.50;3.83;;;;;;;20.09;61.18;98548.80;2170685;81;21035;-82
2022/09/13 09:11:23;;;;;;;4.60;3.25;;;;;;;20.04;60.87;98550.27;2184831;81;21103;-83
2022/09/13 09:14:24;;;;;;;4.70;3.37;;;;;;;20.02;60.88;98550.31;2187244;81;21024;-82
2022/09/13 09:17:24;;;;;;;5.50;3.35;;;;;;;20.20;59.99;98538.73;2187234;81;20999;-80
2022/09/13 09:20:24;;;;;;;3.35;3.02;;;;;;;20.29;58.20;98537.11;2186674;81;20968;-83
2022/09/13 09:23:25;;;;;;;28.73;5.22;;;;;;;20.39;59.47;98529.73;2187037;81;21018;-82
2022/09/13 09:26:27;;;;;;;3.40;2.80;;;;;;;20.69;58.73;98528.73;2188193;81;20940;-81
2022/09/13 09:29:26;;;;;;;4.92;3.22;;;;;;;20.92;57.26;98538.59;2186936;81;20992;-83
2022/09/13 09:32:26;;;;;;;8.15;3.83;;;;;;;20.81;56.68;98534.12;2187419;81;21030;-83
2022/09/13 09:35:27;;;;;;;9.95;4.12;;;;;;;20.66;57.67;98531.04;2187136;81;21363;-83
2022/09/13 09:38:27;;;;;;;5.25;3.52;;;;;;;20.66;57.51;98520.89;2187181;81;21336;-82
2022/09/13 09:41:27;;;;;;;2.72;2.52;;;;;;;20.52;56.83;98517.84;2186375;81;21019;-81
2022/09/13 09:44:30;;;;;;;3.75;2.70;;;;;;;20.61;57.19;98510.44;2187254;81;21004;-83
2022/09/13 09:47:29;;;;;;;4.53;2.33;;;;;;;20.87;53.92;98503.41;2186931;81;21388;-82
2022/09/13 09:50:29;;;;;;;3.72;2.75;;;;;;;20.96;54.61;98497.31;2186687;81;20999;-81
2022/09/13 09:53:30;;;;;;;5.97;2.70;;;;;;;21.26;54.38;98499.81;2186652;81;21215;-81
2022/09/13 09:56:29;;;;;;;5.42;3.17;;;;;;;21.46;52.53;98498.61;2186384;81;21047;-81
2022/09/13 09:59:31;;;;;;;4.17;2.55;;;;;;;21.41;52.96;98496.59;2186615;81;20944;-82
2022/09/13 10:02:30;;;;;;;2.83;2.55;;;;;;;21.59;54.01;98499.87;2187390;81;20992;-84
2022/09/13 10:05:34;;;;;;;2.55;2.35;;;;;;;21.85;52.91;98492.73;2187460;81;20988;-80
2022/09/13 10:08:34;;;;;;;2.87;2.67;;;;;;;21.88;51.87;98483.31;2188341;81;21011;-80
2022/09/13 10:11:35;;;;;;;3.98;2.50;;;;;;;21.97;51.65;98484.27;2187021;81;20996;-82
2022/09/13 10:14:35;;;;;;;2.80;2.50;;;;;;;21.97;51.71;98478.95;2187460;81;20940;-83
2022/09/13 10:17:35;;;;;;;2.72;2.52;;;;;;;21.96;51.89;98473.24;2187262;81;21352;-82
2022/09/13 10:20:36;;;;;;;2.42;2.22;;;;;;;22.00;51.59;98474.84;2187161;81;20952;-81
2022/09/13 10:23:36;;;;;;;2.55;2.33;;;;;;;21.88;50.63;98462.91;2188101;81;21011;-81
2022/09/13 10:26:36;;;;;;;4.75;2.55;;;;;;;21.73;50.69;98463.98;2188537;81;20944;-82
2022/09/13 10:29:37;;;;;;;6.53;2.37;;;;;;;21.56;50.13;98465.47;2187968;81;21090;-83
2022/09/13 10:32:37;;;;;;;4.67;2.42;;;;;;;21.54;50.58;98464.66;2188070;81;20956;-83
2022/09/13 10:35:38;;;;;;;3.92;2.42;;;;;;;21.78;50.78;98467.33;2187881;81;20989;-83
2022/09/13 10:38:38;;;;;;;6.97;3.17;;;;;;;21.90;49.29;98459.73;2187788;81;20968;-84
2022/09/13 10:41:39;;;;;;;3.42;2.60;;;;;;;22.15;49.18;98456.98;2187064;81;21450;-83
2022/09/13 10:44:39;;;;;;;2.70;2.50;;;;;;;22.39;48.64;98464.88;2187188;81;20963;-82
2022/09/13 10:47:40;;;;;;;5.05;3.10;;;;;;;22.42;47.34;98464.74;2186291;81;20975;-83
2022/09/13 10:50:40;;;;;;;3.40;3.10;;;;;;;22.12;47.56;98462.42;2185935;81;21063;-80
2022/09/13 10:53:40;;;;;;;4.53;3.15;;;;;;;21.98;48.11;98454.58;2186048;81;21668;-81
2022/09/13 10:56:42;;;;;;;3.47;3.10;;;;;;;21.93;48.75;98452.10;2185866;81;20974;-81
2022/09/13 10:59:41;;;;;;;3.85;3.10;;;;;;;21.80;47.75;98459.70;2185728;81;21011;-80
2022/09/13 11:02:41;;;;;;;3.67;3.35;;;;;;;21.63;49.12;98452.36;2186187;81;20986;-82
2022/09/13 11:05:42;;;;;;;4.00;3.60;;;;;;;21.63;49.78;98448.38;2186910;81;21018;-81
2022/09/13 11:08:42;;;;;;;4.17;3.77;;;;;;;21.68;49.92;98442.05;2187549;81;21040;-82
2022/09/13 11:11:44;;;;;;;7.47;3.83;;;;;;;21.71;49.72;98445.91;2173066;81;21020;-81
2022/09/13 11:14:43;;;;;;;5.15;3.70;;;;;;;21.70;49.82;98434.89;2171317;81;21033;-83
2022/09/13 11:17:44;;;;;;;5.30;3.62;;;;;;;21.67;50.46;98435.84;2170896;81;20984;-84
2022/09/13 11:20:44;;;;;;;3.50;3.20;;;;;;;21.65;50.70;98423.08;2170571;81;21019;-82
2022/09/13 11:23:44;;;;;;;4.65;3.50;;;;;;;21.92;50.10;98423.80;2170883;81;20992;-83
2022/09/13 11:26:45;;;;;;;6.45;3.30;;;;;;;21.94;50.07;98417.96;2170954;81;20964;-83
2022/09/13 11:29:45;;;;;;;5.15;3.58;;;;;;;21.74;50.14;98411.26;2170828;82;21027;-84
2022/09/13 11:32:46;;;;;;;8.75;3.08;;;;;;;21.84;49.61;98411.30;2170589;81;21399;-83
2022/09/13 11:35:46;;;;;;;4.15;2.98;;;;;;;21.88;48.29;98411.11;2170225;82;21004;-82
2022/09/13 11:38:46;;;;;;;3.92;3.10;;;;;;;21.92;49.31;98406.06;2169911;81;21335;-78
2022/09/13 11:41:47;;;;;;;7.60;3.77;;;;;;;22.30;48.78;98404.10;2170029;81;21032;-81
2022/09/13 11:44:47;;;;;;;5.90;3.55;;;;;;;22.69;47.69;98386.45;2169980;81;20968;-81
2022/09/13 11:47:48;;;;;;;6.28;3.30;;;;;;;22.94;46.40;98380.06;2169870;81;21329;-80
2022/09/13 11:50:48;;;;;;;5.25;3.37;;;;;;;22.92;46.50;98377.94;2170114;81;21035;-80
2022/09/13 11:53:51;;;;;;;6.50;3.40;;;;;;;22.68;46.78;98372.75;2170108;81;20996;-80
2022/09/13 11:56:52;;;;;;;4.42;3.80;;;;;;;22.70;47.70;98366.89;2170250;81;20972;-81
2022/09/13 11:59:52;;;;;;;6.15;3.45;;;;;;;22.61;46.52;98365.11;2170378;81;20969;-80
2022/09/13 12:02:52;;;;;;;3.75;3.45;;;;;;;22.45;48.01;98361.77;2170292;81;20965;-79
2022/09/13 12:05:53;;;;;;;5.08;4.20;;;;;;;22.58;48.27;98359.46;2170678;81;20972;-80
2022/09/13 12:08:53;;;;;;;6.20;4.20;;;;;;;22.60;47.98;98354.94;2170969;81;20992;-82
2022/09/13 12:11:54;;;;;;;6.12;3.72;;;;;;;22.59;47.33;98345.23;2183109;81;21043;-81
2022/09/13 12:14:57;;;;;;;4.75;3.75;;;;;;;22.64;47.61;98339.23;2186579;81;21364;-82
2022/09/13 12:17:55;;;;;;;5.10;4.60;;;;;;;22.55;48.87;98335.66;2185707;81;20999;-80
2022/09/13 12:20:55;;;;;;;7.55;4.60;;;;;;;22.45;48.42;98342.28;2186590;81;20969;-81
2022/09/13 12:23:55;;;;;;;7.75;4.78;;;;;;;22.38;48.92;98336.38;2187197;81;21057;-83
2022/09/13 12:26:56;;;;;;;4.40;4.05;;;;;;;22.33;49.39;98329.53;2186476;81;21400;-83
2022/09/13 12:29:56;;;;;;;5.35;4.05;;;;;;;22.23;49.03;98328.59;2186722;81;20976;-80
2022/09/13 12:32:56;;;;;;;10.03;4.25;;;;;;;22.14;49.27;98328.13;2187031;81;20952;-80
2022/09/13 12:35:57;;;;;;;6.50;4.33;;;;;;;22.07;49.75;98325.34;2186607;81;21056;-83
2022/09/13 12:38:57;;;;;;;8.05;3.92;;;;;;;22.09;49.50;98325.67;2188502;81;21379;-83
2022/09/13 12:41:58;;;;;;;4.72;3.80;;;;;;;22.12;48.74;98324.20;2188256;81;21054;-81
2022/09/13 12:44:58;;;;;;;5.47;3.80;;;;;;;22.08;49.70;98319.95;2188040;81;21027;-82
2022/09/13 12:47:58;;;;;;;5.97;3.27;;;;;;;22.20;49.24;98327.41;2187671;81;21862;-77
2022/09/13 12:50:59;;;;;;;4.80;3.10;;;;;;;22.21;48.17;98323.81;2185323;81;21038;-81
2022/09/13 12:53:59;;;;;;;4.83;3.10;;;;;;;22.21;48.77;98325.61;2185118;81;20956;-76
2022/09/13 12:57:00;;;;;;;6.87;3.22;;;;;;;22.22;48.32;98320.23;2184404;81;21380;-82
2022/09/13 13:00:00;;;;;;;4.40;3.00;;;;;;;22.21;47.79;98326.47;2187518;81;20951;-81
2022/09/13 13:03:00;;;;;;;5.80;3.12;;;;;;;22.05;48.64;98326.73;2188234;81;20963;-81
2022/09/13 13:06:01;;;;;;;5.40;3.25;;;;;;;22.04;48.87;98311.72;2188626;81;21014;-80
2022/09/13 13:09:01;;;;;;;11.33;3.35;;;;;;;22.04;48.49;98289.13;2187309;81;20968;-81
2022/09/13 13:12:03;;;;;;;5.20;3.30;;;;;;;22.08;48.61;98290.72;2187101;81;21043;-82
2022/09/13 13:15:03;;;;;;;3.10;2.80;;;;;;;22.19;47.93;98280.48;2187762;81;21256;-82
2022/09/13 13:18:03;;;;;;;3.72;3.15;;;;;;;22.41;47.71;98282.19;2186708;81;21470;-82
2022/09/13 13:21:03;;;;;;;4.67;3.02;;;;;;;22.54;47.57;98280.27;2186570;81;21398;-83
2022/09/13 13:24:03;;;;;;;94.15;10.95;;;;;;;22.72;46.56;98271.05;2186083;81;21022;-83
2022/09/13 13:27:04;;;;;;;3.70;3.27;;;;;;;22.94;47.07;98262.97;2186358;81;21011;-82
2022/09/13 13:30:04;;;;;;;3.45;3.15;;;;;;;22.98;45.90;98260.55;2186230;81;21043;-82
2022/09/13 13:33:05;;;;;;;3.33;3.00;;;;;;;23.03;46.44;98246.55;2185822;81;20996;-84
2022/09/13 13:36:05;;;;;;;5.95;3.45;;;;;;;22.88;46.49;98246.81;2185799;81;21415;-84
2022/09/13 13:39:06;;;;;;;3.47;2.92;;;;;;;22.67;46.49;98238.48;2186407;81;20988;-83
2022/09/13 13:42:06;;;;;;;112.70;10.82;;;;;;;22.50;47.00;98242.75;2186484;81;21031;-84
2022/09/13 13:45:06;;;;;;;3.92;3.58;;;;;;;22.34;47.49;98250.16;2187941;81;21023;-84
2022/09/13 13:48:07;;;;;;;3.98;3.30;;;;;;;22.22;47.22;98241.80;2187636;81;21383;-84
2022/09/13 13:51:07;;;;;;;3.22;2.92;;;;;;;22.12;47.48;98244.47;2186897;81;20948;-81
2022/09/13 13:54:08;;;;;;;7.97;3.40;;;;;;;22.09;47.69;98241.95;2187735;81;20975;-83
2022/09/13 13:57:08;;;;;;;5.45;3.30;;;;;;;21.98;48.46;98244.18;2188610;81;21026;-82
2022/09/13 14:00:08;;;;;;;4.50;3.37;;;;;;;22.03;49.50;98240.03;2187899;81;20963;-82
2022/09/13 14:03:09;;;;;;;11.65;4.00;;;;;;;22.15;48.96;98243.01;2188208;81;20999;-81
2022/09/13 14:06:09;;;;;;;10.63;3.75;;;;;;;22.40;50.28;98233.47;2190163;81;20976;-83
2022/09/13 14:09:10;;;;;;;5.30;2.95;;;;;;;22.71;49.08;98224.96;2188992;81;21363;-82
2022/09/13 14:12:10;;;;;;;4.15;3.37;;;;;;;23.05;47.37;98222.06;2189154;81;21023;-82
2022/09/13 14:15:12;;;;;;;5.62;3.45;;;;;;;23.04;46.76;98223.86;2189003;81;21078;-82
2022/09/13 14:18:11;;;;;;;3.52;3.22;;;;;;;22.85;46.43;98216.36;2188245;81;21633;-82
2022/09/13 14:21:11;;;;;;;3.92;3.47;;;;;;;22.72;47.15;98213.39;2187927;81;20991;-82
2022/09/13 14:24:12;;;;;;;3.70;3.30;;;;;;;22.56;47.19;98211.05;2188184;81;21035;-80
2022/09/13 14:27:12;;;;;;;7.50;3.52;;;;;;;22.35;48.22;98210.67;2186862;81;21454;-80
2022/09/13 14:30:12;;;;;;;15.23;7.10;;;;;;;22.22;48.77;98208.58;2186419;81;21073;-78
2022/09/13 14:33:13;;;;;;;5.58;3.55;;;;;;;22.06;48.77;98208.86;2187171;81;21323;-80
2022/09/13 14:36:13;;;;;;;11.20;4.08;;;;;;;21.85;49.47;98211.11;2186150;81;21051;-75
2022/09/13 14:39:14;;;;;;;5.85;3.80;;;;;;;21.65;49.25;98199.98;2187433;81;20980;-77